Terminal Aerodrome Forecast
Issued by NWS Duluth, MN

Home | Current Version | Previous Version | Text Only | Print | Product List | Glossary On
Versions: 1 2 3 4 5 6 7 8 9 10 11 12 13 14 15 16 17 18 19 20 21
996
FTUS43 KDLH 261554 AAA
TAFINL
TAF AMD
KINL 261554Z 2616/2712 28013G24KT P6SM -SHRA OVC015
     FM261900 30018G29KT P6SM -SHRA OVC015
     FM270200 30015G25KT P6SM -SHRA OVC015
     FM270900 30012G20KT P6SM VCSH OVC015=

USA.gov is the U.S. government's official web portal to all federal, state and local government web resources and services.